Latest Coastal Weather Observations for Green Cape

IDN60701

Issued at 1:41 am EST Tuesday 26 May 2015 (issued every 10 minutes, with the page automatically refreshed every 10 minutes)

About coastal observations | Map of coastal stations | Coastal observations for NSW | Marine services | Other Formats
Station Details ID: 069137 Name: GREEN CAPE AWS Lat: -37.26 Lon: 150.05 Height: 19.4 m
Data from the previous 72 hours. | See also: Recent months at Green Cape
Date/Time
EST
Temp

°C
Wind Pressure Rain
since 9am
mm
Weather Cloud Vis
km
Sea
Height
m
Swell
Dir
 
Speed
knots
Gust
knots
hPa Trend Height
m
Period
s
Dir
26/01:30am 10.3 W 11 12 1029.3 - 0.0 - - - - - - -
26/01:00am 10.4 W 11 12 1029.3 - 0.0 - - - - - - -
26/12:30am 10.3 W 11 12 1029.5 - 0.0 - - - - - - -
26/12:00am 10.4 W 11 13 1029.6 - 0.0 - - - - - - -
 
Date/Time
EST
Temp

°C
Wind Pressure Rain
since 9am
mm
Weather Cloud Vis
km
Sea
Height
m
Swell
Dir
 
Speed
knots
Gust
knots
hPa Trend Height
m
Period
s
Dir
25/11:30pm 10.6 W 11 13 1029.8 - 0.0 - - - - - - -
25/11:00pm 10.7 W 10 11 1030.0 - 0.0 - - - - - - -
25/10:30pm 11.3 W 9 10 1030.2 - 0.0 - - - - - - -
25/10:00pm 11.9 WSW 9 10 1030.2 - 0.0 - - - - - - -
25/09:30pm 11.9 W 7 9 1030.4 - 0.0 - - - - - - -
25/09:00pm 12.3 W 10 13 1030.3 - 0.0 - - - - - - -
25/08:30pm 12.7 W 10 13 1030.1 - 0.0 - - - - - - -
25/08:00pm 12.9 W 7 9 1030.0 - 0.0 - - - - - - -
25/07:30pm 13.2 WSW 7 11 1029.8 - 0.0 - - - - - - -
25/07:00pm 13.3 WSW 7 9 1029.7 - 0.0 - - - - - - -
25/06:30pm 13.3 WSW 9 11 1029.6 - 0.0 - - - - - - -
25/06:00pm 13.4 SSW 8 10 1029.2 - 0.0 - - - - - - -
25/05:30pm 13.5 SSW 10 12 1029.1 - 0.0 - - - - - - -
25/05:00pm 13.5 SSW 10 13 1028.8 - 0.0 - - - - - - -
25/04:30pm 13.6 SSW 13 15 1028.7 - 0.0 - - - - - - -
25/04:00pm 14.1 SSW 10 11 1028.7 - 0.0 - - - - - - -
25/03:30pm 14.3 SSW 11 12 1028.8 - 0.0 - - - - - - -
25/03:00pm 14.2 SSW 12 15 1028.8 - 0.0 - - - - - - -
25/02:30pm 14.8 SSW 13 15 1028.5 - 0.0 - - - - - - -
25/02:00pm 15.0 S 10 12 1028.7 - 0.0 - - - - - - -
25/01:30pm 14.9 SW 10 12 1029.1 - 0.0 - - - - - - -
25/01:00pm 14.4 SW 7 12 1029.2 - 0.0 - - - - - - -
25/12:30pm 14.1 W 7 9 1029.5 - 0.0 - - - - - - -
25/12:00pm 13.4 WSW 8 9 1029.9 - 0.0 - - - - - - -
25/11:30am 12.7 W 12 14 1030.4 - 0.0 - - - - - - -
25/11:00am 12.4 W 8 10 1030.3 - 0.0 - - - - - - -
25/10:30am 11.9 W 10 13 1030.9 - 0.0 - - - - - - -
25/10:00am 10.9 W 11 13 1031.0 - 0.0 - - - - - - -
25/09:30am 10.4 W 12 14 1031.2 - 0.0 - - - - - - -
25/09:00am 9.9 W 13 15 1031.2 - 0.2 - - - - - - -
25/08:30am 10.1 W 9 11 1031.1 - 0.2 - - - - - - -
25/08:00am 10.0 W 8 10 1030.8 - 0.2 - - - - - - -
25/07:30am 9.4 W 10 11 1030.8 - 0.2 - - - - - - -
25/07:00am 9.1 W 9 11 1030.7 - 0.2 - - - - - - -
25/06:30am 9.7 WNW 6 8 1030.4 - 0.2 - - - - - - -
25/06:00am 9.1 W 8 9 1030.2 - 0.2 - - - - - - -
25/05:30am 8.5 WNW 8 9 1030.1 - 0.2 - - - - - - -
25/05:00am 8.3 WNW 7 8 1029.8 - 0.2 - - - - - - -
25/04:30am 8.3 WNW 8 9 1029.7 - 0.2 - - - - - - -
25/04:00am 9.0 WNW 6 7 1029.6 - 0.2 - - - - - - -
25/03:30am 8.6 NW 3 5 1029.6 - 0.2 - - - - - - -
25/03:00am 8.9 WNW 6 8 1030.0 - 0.2 - - - - - - -
25/02:30am 9.0 WNW 4 6 1030.3 - 0.2 - - - - - - -
25/02:00am 9.0 WNW 5 7 1030.5 - 0.2 - - - - - - -
25/01:30am 9.1 WNW 5 6 1030.5 - 0.2 - - - - - - -
25/01:00am 9.2 WNW 4 4 1030.3 - 0.2 - - - - - - -
25/12:30am 10.0 WNW 5 6 1030.6 - 0.2 - - - - - - -
25/12:00am 10.3 NW 4 5 1030.6 - 0.2 - - - - - - -
 
Date/Time
EST
Temp

°C
Wind Pressure Rain
since 9am
mm
Weather Cloud Vis
km
Sea
Height
m
Swell
Dir
 
Speed
knots
Gust
knots
hPa Trend Height
m
Period
s
Dir
24/11:30pm 10.6 WNW 4 4 1030.9 - 0.2 - - - - - - -
24/11:00pm 10.8 NW 4 5 1031.1 - 0.2 - - - - - - -
24/10:30pm 11.7 NNW 7 8 1031.2 - 0.2 - - - - - - -
24/10:00pm 11.9 NNW 4 6 1031.2 - 0.2 - - - - - - -
24/09:30pm 11.3 NW 3 4 1031.3 - 0.2 - - - - - - -
24/09:00pm 11.7 WNW 3 5 1031.3 - 0.2 - - - - - - -
24/08:30pm 12.2 W 4 6 1031.5 - 0.2 - - - - - - -
24/08:00pm 12.4 NNW 4 5 1031.3 - 0.2 - - - - - - -
24/07:30pm 12.6 NW 3 4 1031.2 - 0.2 - - - - - - -
24/07:00pm 13.2 N 4 5 1031.3 - 0.2 - - - - - - -
24/06:30pm 12.7 N 4 5 1031.4 - 0.2 - - - - - - -
24/06:00pm 13.1 N 4 5 1031.3 - 0.2 - - - - - - -
24/05:30pm 13.4 NNE 4 7 1031.1 - 0.2 - - - - - - -
24/05:00pm 13.9 NE 3 6 1030.9 - 0.2 - - - - - - -
24/04:30pm 14.5 ENE 2 4 1030.7 - 0.2 - - - - - - -
24/04:00pm 14.9 ESE 3 5 1030.7 - 0.2 - - - - - - -
24/03:30pm 15.6 ESE 2 3 1030.6 - 0.2 - - - - - - -
24/03:00pm 16.5 SE 1 3 1030.7 - 0.2 - - - - - - -
24/02:30pm 16.4 SSE 2 4 1030.8 - 0.2 - - - - - - -
24/02:00pm 17.0 SE 1 3 1030.5 - 0.2 - - - - - - -
24/01:30pm 15.6 SSW 2 3 1030.7 - 0.2 - - - - - - -
24/01:00pm 15.4 WSW 3 5 1030.8 - 0.2 - - - - - - -
24/12:30pm 15.4 W 6 8 1031.1 - 0.0 - - - - - - -
24/12:00pm 14.7 WNW 9 10 1031.2 - 0.0 - - - - - - -
24/11:30am 14.0 WNW 11 13 1031.5 - 0.0 - - - - - - -
24/11:00am 13.4 WNW 12 14 1031.7 - 0.0 - - - - - - -
24/10:30am 12.6 WNW 13 16 1032.0 - 0.0 - - - - - - -
24/10:00am 11.8 WNW 15 17 1032.1 - 0.0 - - - - - - -
24/09:30am 11.4 WNW 15 18 1031.9 - 0.0 - - - - - - -
24/09:00am 10.7 W 15 18 1031.9 - 0.0 - - - - - - -
24/08:30am 10.7 WNW 14 17 1031.8 - 0.0 - - - - - - -
24/08:00am 10.8 WNW 14 18 1031.5 - 0.0 - - - - - - -
24/07:30am 10.8 WNW 13 18 1031.2 - 0.0 - - - - - - -
24/07:00am 10.9 W 16 20 1031.0 - 0.0 - - - - - - -
24/06:30am 11.2 WNW 16 20 1030.7 - 0.0 - - - - - - -
24/06:00am 10.9 W 17 19 1030.4 - 0.0 - - - - - - -
24/05:30am 11.3 W 16 20 1030.1 - 0.0 - - - - - - -
24/05:00am 11.3 W 17 19 1030.0 - 0.0 - - - - - - -
24/04:30am 11.5 W 18 21 1029.9 - 0.0 - - - - - - -
24/04:00am 11.9 W 19 24 1029.7 - 0.0 - - - - - - -
24/03:30am 12.1 W 19 25 1029.5 - 0.0 - - - - - - -
24/03:00am 12.0 W 16 21 1029.5 - 0.0 - - - - - - -
24/02:30am 11.9 W 18 21 1029.6 - 0.0 - - - - - - -
24/02:00am 11.7 W 14 17 1029.7 - 0.0 - - - - - - -
24/01:30am 11.8 W 14 17 1029.9 - 0.0 - - - - - - -
24/01:00am 11.8 W 15 18 1029.9 - 0.0 - - - - - - -
24/12:30am 11.6 W 15 17 1030.0 - 0.0 - - - - - - -
24/12:00am 11.4 W 15 17 1030.0 - 0.0 - - - - - - -
 
Date/Time
EST
Temp

°C
Wind Pressure Rain
since 9am
mm
Weather Cloud Vis
km
Sea
Height
m
Swell
Dir
 
Speed
knots
Gust
knots
hPa Trend Height
m
Period
s
Dir
23/11:30pm 11.2 W 16 19 1030.1 - 0.0 - - - - - - -
23/11:00pm 11.4 W 16 19 1029.9 - 0.0 - - - - - - -
23/10:30pm 11.3 W 17 20 1029.8 - 0.0 - - - - - - -
23/10:00pm 11.4 W 16 20 1029.9 - 0.0 - - - - - - -
23/09:30pm 11.3 W 19 30 1030.0 - 0.0 - - - - - - -
23/09:23pm 11.5 W 18 30 1029.8 - 0.0 - - - - - - -
23/09:00pm 11.2 WNW 16 21 1030.0 - 0.0 - - - - - - -
23/08:30pm 11.5 W 15 19 1030.2 - 0.0 - - - - - - -
23/08:00pm 12.0 W 14 18 1030.2 - 0.0 - - - - - - -
23/07:30pm 11.9 W 13 19 1030.1 - 0.0 - - - - - - -
23/07:00pm 11.8 W 11 16 1029.9 - 0.0 - - - - - - -
23/06:30pm 11.8 W 13 21 1029.8 - 0.0 - - - - - - -
23/06:00pm 11.7 WSW 12 15 1029.8 - 0.0 - - - - - - -
23/05:30pm 12.0 WSW 19 24 1029.6 - 0.0 - - - - - - -
23/05:00pm 12.0 WSW 15 19 1029.6 - 0.0 - - - - - - -
23/04:30pm 12.5 WSW 16 20 1029.6 - 0.0 - - - - - - -
23/04:00pm 12.7 WSW 16 21 1029.4 - 0.0 - - - - - - -
23/03:30pm 13.2 WSW 18 22 1029.0 - 0.0 - - - - - - -
23/03:00pm 13.5 WSW 20 24 1028.7 - 0.0 - - - - - - -
23/02:30pm 13.7 WSW 15 20 1028.6 - 0.0 - - - - - - -
23/02:00pm 13.5 WSW 19 24 1028.5 - 0.0 - - - - - - -
23/01:30pm 13.6 WSW 17 23 1028.7 - 0.0 - - - - - - -
23/01:00pm 13.3 WSW 19 24 1028.7 - 0.0 - - - - - - -
23/12:30pm 13.2 WSW 18 24 1028.9 - 0.0 - - - - - - -
23/12:00pm 13.2 WSW 18 25 1029.3 - 0.0 - - - - - - -
23/11:30am 13.1 W 18 22 1029.7 - 0.0 - - - - - - -
23/11:00am 12.6 WSW 17 22 1030.0 - 0.0 - - - - - - -
23/10:30am 12.4 WSW 18 23 1030.1 - 0.0 - - - - - - -
23/10:00am 12.4 WSW 18 25 1030.0 - 0.0 - - - - - - -
23/09:30am 12.2 WSW 20 25 1029.9 - 0.0 - - - - - - -
23/09:00am 11.8 W 20 26 1029.9 - 1.2 - - - - - - -
23/08:30am 11.3 W 19 23 1029.7 - 1.2 - - - - - - -
23/08:00am 11.1 W 18 23 1029.7 - 1.2 - - - - - - -
23/07:30am 11.2 W 18 23 1029.4 - 1.2 - - - - - - -
23/07:00am 11.1 WSW 17 24 1029.1 - 1.2 - - - - - - -
23/06:30am 10.9 W 19 22 1028.7 - 1.2 - - - - - - -
23/06:00am 10.8 W 20 23 1028.4 - 1.2 - - - - - - -
23/05:30am 10.7 W 20 24 1028.2 - 1.2 - - - - - - -
23/05:00am 11.1 W 23 28 1028.1 - 1.2 - - - - - - -
23/04:30am 11.3 WSW 24 30 1028.0 - 1.2 - - - - - - -
23/04:00am 11.3 WSW 25 31 1028.0 - 1.2 - - - - - - -
23/03:30am 11.7 WSW 21 28 1028.0 - 1.2 - - - - - - -
23/03:00am 12.1 WSW 25 33 1027.7 - 1.2 - - - - - - -
23/02:30am 12.3 WSW 25 29 1027.7 - 1.2 - - - - - - -
23/02:00am 12.1 WSW 21 25 1027.8 - 1.2 - - - - - - -

Other Formats:

Comma delimited format used in spreadsheet applications
http://www.bom.gov.au/fwo/IDN60701/IDN60701.94934.axf

JavaScript Object Notation format (JSON) in row-major order
http://www.bom.gov.au/fwo/IDN60701/IDN60701.94934.json